sensor_id;sensor_type;location;lat;lon;timestamp;temperature;humidity
57386;DHT22;61487;56.494;21.014;2022-07-23T00:00:16;19.70;99.90
57386;DHT22;61487;56.494;21.014;2022-07-23T00:02:43;19.70;99.90
57386;DHT22;61487;56.494;21.014;2022-07-23T00:05:11;19.70;99.90
57386;DHT22;61487;56.494;21.014;2022-07-23T00:07:38;19.70;99.90
57386;DHT22;61487;56.494;21.014;2022-07-23T00:10:06;19.60;99.90
57386;DHT22;61487;56.494;21.014;2022-07-23T00:12:33;19.60;99.90
57386;DHT22;61487;56.494;21.014;2022-07-23T00:15:01;19.60;99.90
57386;DHT22;61487;56.494;21.014;2022-07-23T00:17:29;19.60;99.90
57386;DHT22;61487;56.494;21.014;2022-07-23T00:19:56;19.60;99.90
57386;DHT22;61487;56.494;21.014;2022-07-23T00:22:23;19.50;99.90
57386;DHT22;61487;56.494;21.014;2022-07-23T00:24:50;19.50;99.90
57386;DHT22;61487;56.494;21.014;2022-07-23T00:27:37;19.40;99.90
57386;DHT22;61487;56.494;21.014;2022-07-23T00:30:04;19.40;99.90
57386;DHT22;61487;56.494;21.014;2022-07-23T00:32:32;19.40;99.90
57386;DHT22;61487;56.494;21.014;2022-07-23T00:35:20;19.40;99.90
57386;DHT22;61487;56.494;21.014;2022-07-23T00:37:48;19.40;99.90
57386;DHT22;61487;56.494;21.014;2022-07-23T00:40:16;19.30;99.90
57386;DHT22;61487;56.494;21.014;2022-07-23T00:42:43;19.30;99.90
57386;DHT22;61487;56.494;21.014;2022-07-23T00:45:10;19.30;99.90
57386;DHT22;61487;56.494;21.014;2022-07-23T00:47:38;19.30;99.90
57386;DHT22;61487;56.494;21.014;2022-07-23T00:50:06;19.30;99.90
57386;DHT22;61487;56.494;21.014;2022-07-23T00:52:35;19.30;99.90
57386;DHT22;61487;56.494;21.014;2022-07-23T00:55:04;19.30;99.90
57386;DHT22;61487;56.494;21.014;2022-07-23T00:57:31;19.30;99.90
57386;DHT22;61487;56.494;21.014;2022-07-23T00:59:59;19.30;99.90
57386;DHT22;61487;56.494;21.014;2022-07-23T01:02:27;19.30;99.90
57386;DHT22;61487;56.494;21.014;2022-07-23T01:04:54;19.20;99.90
57386;DHT22;61487;56.494;21.014;2022-07-23T01:07:21;19.20;99.90
57386;DHT22;61487;56.494;21.014;2022-07-23T01:09:49;19.20;99.90
57386;DHT22;61487;56.494;21.014;2022-07-23T01:12:18;19.20;99.90
57386;DHT22;61487;56.494;21.014;2022-07-23T01:14:45;19.20;99.90
57386;DHT22;61487;56.494;21.014;2022-07-23T01:17:12;19.10;99.90
57386;DHT22;61487;56.494;21.014;2022-07-23T01:19:39;19.20;99.90
57386;DHT22;61487;56.494;21.014;2022-07-23T01:22:06;19.10;99.90
57386;DHT22;61487;56.494;21.014;2022-07-23T01:24:33;19.10;99.90
57386;DHT22;61487;56.494;21.014;2022-07-23T01:27:00;19.10;99.90
57386;DHT22;61487;56.494;21.014;2022-07-23T01:29:27;19.10;99.90
57386;DHT22;61487;56.494;21.014;2022-07-23T01:31:55;19.10;99.90
57386;DHT22;61487;56.494;21.014;2022-07-23T01:34:22;19.10;99.90
57386;DHT22;61487;56.494;21.014;2022-07-23T01:36:49;19.10;99.90
57386;DHT22;61487;56.494;21.014;2022-07-23T01:39:16;19.10;99.90
57386;DHT22;61487;56.494;21.014;2022-07-23T01:41:44;19.10;99.90
57386;DHT22;61487;56.494;21.014;2022-07-23T01:44:17;19.00;99.90
57386;DHT22;61487;56.494;21.014;2022-07-23T01:46:44;18.90;99.90
57386;DHT22;61487;56.494;21.014;2022-07-23T01:49:11;19.00;99.90
57386;DHT22;61487;56.494;21.014;2022-07-23T01:51:38;19.00;99.90
57386;DHT22;61487;56.494;21.014;2022-07-23T01:54:33;18.90;99.90
57386;DHT22;61487;56.494;21.014;2022-07-23T01:57:01;18.90;99.90
57386;DHT22;61487;56.494;21.014;2022-07-23T01:59:28;18.90;99.90
57386;DHT22;61487;56.494;21.014;2022-07-23T02:01:55;18.90;99.90
57386;DHT22;61487;56.494;21.014;2022-07-23T02:04:24;18.90;99.90
57386;DHT22;61487;56.494;21.014;2022-07-23T02:06:53;18.90;99.90
57386;DHT22;61487;56.494;21.014;2022-07-23T02:09:21;18.90;99.90
57386;DHT22;61487;56.494;21.014;2022-07-23T02:11:48;18.80;99.90
57386;DHT22;61487;56.494;21.014;2022-07-23T02:14:16;18.80;99.90
57386;DHT22;61487;56.494;21.014;2022-07-23T02:16:43;18.70;99.90
57386;DHT22;61487;56.494;21.014;2022-07-23T02:19:10;18.70;99.90
57386;DHT22;61487;56.494;21.014;2022-07-23T02:21:37;18.70;99.90
57386;DHT22;61487;56.494;21.014;2022-07-23T02:24:05;18.70;99.90
57386;DHT22;61487;56.494;21.014;2022-07-23T02:26:33;18.70;99.90
57386;DHT22;61487;56.494;21.014;2022-07-23T02:29:02;18.70;99.90
57386;DHT22;61487;56.494;21.014;2022-07-23T02:31:31;18.60;99.90
57386;DHT22;61487;56.494;21.014;2022-07-23T02:33:58;18.60;99.90
57386;DHT22;61487;56.494;21.014;2022-07-23T02:36:25;18.60;99.90
57386;DHT22;61487;56.494;21.014;2022-07-23T02:38:52;18.50;99.90
57386;DHT22;61487;56.494;21.014;2022-07-23T02:41:20;18.50;99.90
57386;DHT22;61487;56.494;21.014;2022-07-23T02:43:47;18.40;99.90
57386;DHT22;61487;56.494;21.014;2022-07-23T02:46:14;18.40;99.90
57386;DHT22;61487;56.494;21.014;2022-07-23T02:48:41;18.40;99.90
57386;DHT22;61487;56.494;21.014;2022-07-23T02:51:08;18.40;99.90
57386;DHT22;61487;56.494;21.014;2022-07-23T02:53:40;18.40;99.90
57386;DHT22;61487;56.494;21.014;2022-07-23T02:56:08;18.40;99.90
57386;DHT22;61487;56.494;21.014;2022-07-23T02:58:35;18.30;99.90
57386;DHT22;61487;56.494;21.014;2022-07-23T03:01:03;18.30;99.90
57386;DHT22;61487;56.494;21.014;2022-07-23T03:03:30;18.30;99.90
57386;DHT22;61487;56.494;21.014;2022-07-23T03:05:57;18.30;99.90
57386;DHT22;61487;56.494;21.014;2022-07-23T03:08:24;18.40;99.90
57386;DHT22;61487;56.494;21.014;2022-07-23T03:10:51;18.40;99.90
57386;DHT22;61487;56.494;21.014;2022-07-23T03:13:19;18.50;99.90
57386;DHT22;61487;56.494;21.014;2022-07-23T03:15:46;18.50;99.90
57386;DHT22;61487;56.494;21.014;2022-07-23T03:18:13;18.60;99.90
57386;DHT22;61487;56.494;21.014;2022-07-23T03:20:40;18.60;99.90
57386;DHT22;61487;56.494;21.014;2022-07-23T03:23:07;18.50;99.90
57386;DHT22;61487;56.494;21.014;2022-07-23T03:25:34;18.60;99.90
57386;DHT22;61487;56.494;21.014;2022-07-23T03:28:01;18.70;99.90
57386;DHT22;61487;56.494;21.014;2022-07-23T03:30:29;18.80;99.90
57386;DHT22;61487;56.494;21.014;2022-07-23T03:32:56;18.70;99.90
57386;DHT22;61487;56.494;21.014;2022-07-23T03:35:23;18.80;99.90
57386;DHT22;61487;56.494;21.014;2022-07-23T03:37:50;18.70;99.90
57386;DHT22;61487;56.494;21.014;2022-07-23T03:40:17;18.80;99.90
57386;DHT22;61487;56.494;21.014;2022-07-23T03:42:44;18.80;99.90
57386;DHT22;61487;56.494;21.014;2022-07-23T03:45:12;18.80;99.90
57386;DHT22;61487;56.494;21.014;2022-07-23T03:47:39;18.70;99.90
57386;DHT22;61487;56.494;21.014;2022-07-23T03:50:08;18.80;99.90
57386;DHT22;61487;56.494;21.014;2022-07-23T03:52:35;18.80;99.90
57386;DHT22;61487;56.494;21.014;2022-07-23T03:55:03;18.90;99.90
57386;DHT22;61487;56.494;21.014;2022-07-23T03:57:31;18.90;99.90
57386;DHT22;61487;56.494;21.014;2022-07-23T03:59:58;18.80;99.90
57386;DHT22;61487;56.494;21.014;2022-07-23T04:02:25;18.80;99.90
57386;DHT22;61487;56.494;21.014;2022-07-23T04:04:53;18.80;99.90
57386;DHT22;61487;56.494;21.014;2022-07-23T04:07:20;18.80;99.90
57386;DHT22;61487;56.494;21.014;2022-07-23T04:09:48;18.90;99.90
57386;DHT22;61487;56.494;21.014;2022-07-23T04:12:15;19.00;99.90
57386;DHT22;61487;56.494;21.014;2022-07-23T04:14:43;18.90;99.90
57386;DHT22;61487;56.494;21.014;2022-07-23T04:17:10;18.90;99.90
57386;DHT22;61487;56.494;21.014;2022-07-23T04:19:38;19.00;99.90
57386;DHT22;61487;56.494;21.014;2022-07-23T04:22:11;18.90;99.90
57386;DHT22;61487;56.494;21.014;2022-07-23T04:24:38;18.80;99.90
57386;DHT22;61487;56.494;21.014;2022-07-23T04:27:06;18.70;99.90
57386;DHT22;61487;56.494;21.014;2022-07-23T04:29:33;18.80;99.90
57386;DHT22;61487;56.494;21.014;2022-07-23T04:32:00;18.90;99.90
57386;DHT22;61487;56.494;21.014;2022-07-23T04:34:28;19.00;99.90
57386;DHT22;61487;56.494;21.014;2022-07-23T04:36:55;19.00;99.90
57386;DHT22;61487;56.494;21.014;2022-07-23T04:39:22;18.90;99.90
57386;DHT22;61487;56.494;21.014;2022-07-23T04:41:49;18.90;99.90
57386;DHT22;61487;56.494;21.014;2022-07-23T04:44:16;19.00;99.90
57386;DHT22;61487;56.494;21.014;2022-07-23T04:46:44;19.10;99.90
57386;DHT22;61487;56.494;21.014;2022-07-23T04:49:13;19.20;99.90
57386;DHT22;61487;56.494;21.014;2022-07-23T04:51:40;19.20;99.90
57386;DHT22;61487;56.494;21.014;2022-07-23T04:54:07;19.30;99.90
57386;DHT22;61487;56.494;21.014;2022-07-23T04:56:37;19.30;99.90
57386;DHT22;61487;56.494;21.014;2022-07-23T04:59:04;19.20;99.90
57386;DHT22;61487;56.494;21.014;2022-07-23T05:01:31;19.20;99.90
57386;DHT22;61487;56.494;21.014;2022-07-23T05:03:58;19.10;99.90
57386;DHT22;61487;56.494;21.014;2022-07-23T05:06:26;19.00;99.90
57386;DHT22;61487;56.494;21.014;2022-07-23T05:08:53;19.00;99.90
57386;DHT22;61487;56.494;21.014;2022-07-23T05:11:22;19.10;99.90
57386;DHT22;61487;56.494;21.014;2022-07-23T05:13:53;19.00;99.90
57386;DHT22;61487;56.494;21.014;2022-07-23T05:16:20;19.10;99.90
57386;DHT22;61487;56.494;21.014;2022-07-23T05:18:47;19.20;99.90
57386;DHT22;61487;56.494;21.014;2022-07-23T05:21:14;19.30;99.90
57386;DHT22;61487;56.494;21.014;2022-07-23T05:23:42;19.30;99.90
57386;DHT22;61487;56.494;21.014;2022-07-23T05:26:09;19.40;99.90
57386;DHT22;61487;56.494;21.014;2022-07-23T05:28:36;19.40;99.90
57386;DHT22;61487;56.494;21.014;2022-07-23T05:31:03;19.40;99.90
57386;DHT22;61487;56.494;21.014;2022-07-23T05:33:30;19.40;99.90
57386;DHT22;61487;56.494;21.014;2022-07-23T05:36:04;19.30;99.90
57386;DHT22;61487;56.494;21.014;2022-07-23T05:38:32;19.30;99.90
57386;DHT22;61487;56.494;21.014;2022-07-23T05:41:00;19.40;99.90
57386;DHT22;61487;56.494;21.014;2022-07-23T05:43:27;19.50;99.90
57386;DHT22;61487;56.494;21.014;2022-07-23T05:45:55;19.50;99.90
57386;DHT22;61487;56.494;21.014;2022-07-23T05:48:22;19.40;99.90
57386;DHT22;61487;56.494;21.014;2022-07-23T05:50:50;19.40;99.90
57386;DHT22;61487;56.494;21.014;2022-07-23T05:53:17;19.40;99.90
57386;DHT22;61487;56.494;21.014;2022-07-23T05:55:44;19.50;99.90
57386;DHT22;61487;56.494;21.014;2022-07-23T05:58:11;19.70;99.90
57386;DHT22;61487;56.494;21.014;2022-07-23T06:00:38;19.60;99.90
57386;DHT22;61487;56.494;21.014;2022-07-23T06:03:06;19.50;99.90
57386;DHT22;61487;56.494;21.014;2022-07-23T06:05:33;19.60;99.90
57386;DHT22;61487;56.494;21.014;2022-07-23T06:08:00;19.70;99.90
57386;DHT22;61487;56.494;21.014;2022-07-23T06:10:27;19.60;99.90
57386;DHT22;61487;56.494;21.014;2022-07-23T06:12:55;19.60;99.90
57386;DHT22;61487;56.494;21.014;2022-07-23T06:15:28;19.70;99.90
57386;DHT22;61487;56.494;21.014;2022-07-23T06:17:56;19.70;99.90
57386;DHT22;61487;56.494;21.014;2022-07-23T06:20:23;19.70;99.90
57386;DHT22;61487;56.494;21.014;2022-07-23T06:22:50;19.70;99.90
57386;DHT22;61487;56.494;21.014;2022-07-23T06:25:17;19.80;99.90
57386;DHT22;61487;56.494;21.014;2022-07-23T06:27:46;19.80;99.90
57386;DHT22;61487;56.494;21.014;2022-07-23T06:30:14;19.90;99.90
57386;DHT22;61487;56.494;21.014;2022-07-23T06:32:48;20.10;99.90
57386;DHT22;61487;56.494;21.014;2022-07-23T06:35:18;20.10;99.90
57386;DHT22;61487;56.494;21.014;2022-07-23T06:37:45;20.10;99.90
57386;DHT22;61487;56.494;21.014;2022-07-23T06:40:14;20.20;99.90
57386;DHT22;61487;56.494;21.014;2022-07-23T06:42:42;20.50;99.90
57386;DHT22;61487;56.494;21.014;2022-07-23T06:45:09;20.60;99.90
57386;DHT22;61487;56.494;21.014;2022-07-23T06:47:36;20.40;99.90
57386;DHT22;61487;56.494;21.014;2022-07-23T06:50:04;20.30;99.90
57386;DHT22;61487;56.494;21.014;2022-07-23T06:52:31;20.50;99.90
57386;DHT22;61487;56.494;21.014;2022-07-23T06:54:58;20.60;99.90
57386;DHT22;61487;56.494;21.014;2022-07-23T06:57:25;20.60;99.90
57386;DHT22;61487;56.494;21.014;2022-07-23T06:59:53;20.50;99.90
57386;DHT22;61487;56.494;21.014;2022-07-23T07:02:21;20.40;99.90
57386;DHT22;61487;56.494;21.014;2022-07-23T07:04:49;20.60;99.90
57386;DHT22;61487;56.494;21.014;2022-07-23T07:07:16;20.50;99.90
57386;DHT22;61487;56.494;21.014;2022-07-23T07:09:43;20.20;99.90
57386;DHT22;61487;56.494;21.014;2022-07-23T07:12:14;20.10;99.90
57386;DHT22;61487;56.494;21.014;2022-07-23T07:14:41;21.50;99.90
57386;DHT22;61487;56.494;21.014;2022-07-23T07:17:09;21.60;99.90
57386;DHT22;61487;56.494;21.014;2022-07-23T07:19:37;22.40;99.90
57386;DHT22;61487;56.494;21.014;2022-07-23T07:22:04;23.70;99.90
57386;DHT22;61487;56.494;21.014;2022-07-23T07:24:31;24.80;99.90
57386;DHT22;61487;56.494;21.014;2022-07-23T07:27:03;25.00;99.90
57386;DHT22;61487;56.494;21.014;2022-07-23T07:29:30;26.20;99.90
57386;DHT22;61487;56.494;21.014;2022-07-23T07:31:58;26.10;99.90
57386;DHT22;61487;56.494;21.014;2022-07-23T07:34:25;24.30;99.90
57386;DHT22;61487;56.494;21.014;2022-07-23T07:36:52;22.90;99.90
57386;DHT22;61487;56.494;21.014;2022-07-23T07:39:19;22.20;99.90
57386;DHT22;61487;56.494;21.014;2022-07-23T07:41:46;22.20;99.90
57386;DHT22;61487;56.494;21.014;2022-07-23T07:44:13;23.30;99.90
57386;DHT22;61487;56.494;21.014;2022-07-23T07:46:40;23.90;99.90
57386;DHT22;61487;56.494;21.014;2022-07-23T07:49:08;24.40;99.90
57386;DHT22;61487;56.494;21.014;2022-07-23T07:51:41;25.00;99.90
57386;DHT22;61487;56.494;21.014;2022-07-23T07:54:11;25.80;99.90
57386;DHT22;61487;56.494;21.014;2022-07-23T07:56:39;25.20;99.90
57386;DHT22;61487;56.494;21.014;2022-07-23T07:59:07;25.20;99.90
57386;DHT22;61487;56.494;21.014;2022-07-23T08:01:36;26.00;99.90
57386;DHT22;61487;56.494;21.014;2022-07-23T08:04:03;26.20;99.90
57386;DHT22;61487;56.494;21.014;2022-07-23T08:06:31;25.90;99.90
57386;DHT22;61487;56.494;21.014;2022-07-23T08:08:59;25.30;99.90
57386;DHT22;61487;56.494;21.014;2022-07-23T08:11:26;24.80;99.90
57386;DHT22;61487;56.494;21.014;2022-07-23T08:13:53;24.80;99.90
57386;DHT22;61487;56.494;21.014;2022-07-23T08:16:20;24.80;99.90
57386;DHT22;61487;56.494;21.014;2022-07-23T08:18:48;25.30;99.90
57386;DHT22;61487;56.494;21.014;2022-07-23T08:21:16;25.40;99.90
57386;DHT22;61487;56.494;21.014;2022-07-23T08:23:43;25.00;99.90
57386;DHT22;61487;56.494;21.014;2022-07-23T08:26:11;25.30;99.90
57386;DHT22;61487;56.494;21.014;2022-07-23T08:28:38;25.90;99.90
57386;DHT22;61487;56.494;21.014;2022-07-23T08:31:05;25.80;99.90
57386;DHT22;61487;56.494;21.014;2022-07-23T08:33:32;26.30;99.90
57386;DHT22;61487;56.494;21.014;2022-07-23T08:36:01;27.20;99.90
57386;DHT22;61487;56.494;21.014;2022-07-23T08:38:30;26.90;99.90
57386;DHT22;61487;56.494;21.014;2022-07-23T08:40:57;26.80;99.90
57386;DHT22;61487;56.494;21.014;2022-07-23T08:43:27;25.60;99.90
57386;DHT22;61487;56.494;21.014;2022-07-23T08:45:55;25.60;99.90
57386;DHT22;61487;56.494;21.014;2022-07-23T08:48:29;26.10;99.90
57386;DHT22;61487;56.494;21.014;2022-07-23T08:50:59;26.70;99.90
57386;DHT22;61487;56.494;21.014;2022-07-23T08:53:28;26.50;99.50
57386;DHT22;61487;56.494;21.014;2022-07-23T08:55:59;26.00;99.90
57386;DHT22;61487;56.494;21.014;2022-07-23T08:58:28;25.50;99.90
57386;DHT22;61487;56.494;21.014;2022-07-23T09:00:56;25.20;99.90
57386;DHT22;61487;56.494;21.014;2022-07-23T09:03:27;24.90;99.90
57386;DHT22;61487;56.494;21.014;2022-07-23T09:05:55;25.50;99.90
57386;DHT22;61487;56.494;21.014;2022-07-23T09:08:26;25.30;99.90
57386;DHT22;61487;56.494;21.014;2022-07-23T09:11:02;25.60;99.90
57386;DHT22;61487;56.494;21.014;2022-07-23T09:16:10;24.60;99.90
57386;DHT22;61487;56.494;21.014;2022-07-23T09:26:18;24.60;99.90
57386;DHT22;61487;56.494;21.014;2022-07-23T09:28:49;25.50;99.90
57386;DHT22;61487;56.494;21.014;2022-07-23T09:31:16;26.70;99.90
57386;DHT22;61487;56.494;21.014;2022-07-23T09:33:43;28.20;98.80
57386;DHT22;61487;56.494;21.014;2022-07-23T09:36:10;28.10;98.40
57386;DHT22;61487;56.494;21.014;2022-07-23T09:38:47;27.70;97.80
57386;DHT22;61487;56.494;21.014;2022-07-23T09:41:22;26.70;99.50
57386;DHT22;61487;56.494;21.014;2022-07-23T09:43:56;26.40;99.90
57386;DHT22;61487;56.494;21.014;2022-07-23T09:46:24;25.10;99.90
57386;DHT22;61487;56.494;21.014;2022-07-23T09:48:52;25.00;99.90
57386;DHT22;61487;56.494;21.014;2022-07-23T09:51:19;25.10;99.90
57386;DHT22;61487;56.494;21.014;2022-07-23T09:54:05;24.90;99.90
57386;DHT22;61487;56.494;21.014;2022-07-23T09:56:32;24.50;99.90
57386;DHT22;61487;56.494;21.014;2022-07-23T09:58:59;24.20;99.90
57386;DHT22;61487;56.494;21.014;2022-07-23T10:01:38;23.60;99.90
57386;DHT22;61487;56.494;21.014;2022-07-23T10:04:05;23.50;99.90
57386;DHT22;61487;56.494;21.014;2022-07-23T10:06:34;23.60;99.90
57386;DHT22;61487;56.494;21.014;2022-07-23T10:09:01;23.60;99.90
57386;DHT22;61487;56.494;21.014;2022-07-23T10:11:28;23.00;99.90
57386;DHT22;61487;56.494;21.014;2022-07-23T10:13:55;22.90;99.90
57386;DHT22;61487;56.494;21.014;2022-07-23T10:16:25;23.00;99.90
57386;DHT22;61487;56.494;21.014;2022-07-23T10:18:53;22.80;99.90
57386;DHT22;61487;56.494;21.014;2022-07-23T10:21:41;22.90;99.90
57386;DHT22;61487;56.494;21.014;2022-07-23T10:36:59;23.30;99.90
57386;DHT22;61487;56.494;21.014;2022-07-23T10:39:31;24.10;99.90
57386;DHT22;61487;56.494;21.014;2022-07-23T10:42:20;24.30;99.90
57386;DHT22;61487;56.494;21.014;2022-07-23T10:44:48;24.40;99.90
57386;DHT22;61487;56.494;21.014;2022-07-23T10:47:25;24.60;99.90
57386;DHT22;61487;56.494;21.014;2022-07-23T10:50:22;24.30;99.90
57386;DHT22;61487;56.494;21.014;2022-07-23T10:53:07;24.00;99.90
57386;DHT22;61487;56.494;21.014;2022-07-23T10:58:03;23.00;99.90
57386;DHT22;61487;56.494;21.014;2022-07-23T11:00:32;22.40;99.90
57386;DHT22;61487;56.494;21.014;2022-07-23T11:03:00;22.00;99.90
57386;DHT22;61487;56.494;21.014;2022-07-23T11:05:43;21.70;99.90
57386;DHT22;61487;56.494;21.014;2022-07-23T11:08:14;21.50;99.90
57386;DHT22;61487;56.494;21.014;2022-07-23T11:13:28;21.30;99.90
57386;DHT22;61487;56.494;21.014;2022-07-23T11:23:59;20.90;99.90
57386;DHT22;61487;56.494;21.014;2022-07-23T11:31:58;21.30;99.90
57386;DHT22;61487;56.494;21.014;2022-07-23T11:34:32;21.60;99.90
57386;DHT22;61487;56.494;21.014;2022-07-23T11:36:59;21.50;99.90
57386;DHT22;61487;56.494;21.014;2022-07-23T11:39:27;21.50;99.90
57386;DHT22;61487;56.494;21.014;2022-07-23T11:41:55;21.30;99.90
57386;DHT22;61487;56.494;21.014;2022-07-23T11:44:29;21.30;99.90
57386;DHT22;61487;56.494;21.014;2022-07-23T11:46:57;21.50;99.90
57386;DHT22;61487;56.494;21.014;2022-07-23T11:49:24;21.90;99.90
57386;DHT22;61487;56.494;21.014;2022-07-23T11:54:59;22.30;99.90
57386;DHT22;61487;56.494;21.014;2022-07-23T11:57:25;22.80;99.90
57386;DHT22;61487;56.494;21.014;2022-07-23T11:59:55;23.30;99.90
57386;DHT22;61487;56.494;21.014;2022-07-23T12:02:22;23.70;99.90
57386;DHT22;61487;56.494;21.014;2022-07-23T12:04:54;23.90;99.90
57386;DHT22;61487;56.494;21.014;2022-07-23T12:07:24;24.20;99.90
57386;DHT22;61487;56.494;21.014;2022-07-23T12:09:51;24.20;99.90
57386;DHT22;61487;56.494;21.014;2022-07-23T12:12:18;24.40;99.90
57386;DHT22;61487;56.494;21.014;2022-07-23T12:17:15;24.40;99.90
57386;DHT22;61487;56.494;21.014;2022-07-23T12:19:42;23.70;99.90
57386;DHT22;61487;56.494;21.014;2022-07-23T12:22:11;23.20;99.90
57386;DHT22;61487;56.494;21.014;2022-07-23T12:24:53;23.00;99.90
57386;DHT22;61487;56.494;21.014;2022-07-23T12:27:21;22.90;99.90
57386;DHT22;61487;56.494;21.014;2022-07-23T12:29:48;22.90;99.90
57386;DHT22;61487;56.494;21.014;2022-07-23T12:32:25;22.60;99.90
57386;DHT22;61487;56.494;21.014;2022-07-23T12:35:03;22.20;99.90
57386;DHT22;61487;56.494;21.014;2022-07-23T12:37:31;21.90;99.90
57386;DHT22;61487;56.494;21.014;2022-07-23T12:40:17;21.50;99.90
57386;DHT22;61487;56.494;21.014;2022-07-23T12:42:49;21.30;99.90
57386;DHT22;61487;56.494;21.014;2022-07-23T12:45:17;21.30;99.90
57386;DHT22;61487;56.494;21.014;2022-07-23T12:53:05;20.60;99.90
57386;DHT22;61487;56.494;21.014;2022-07-23T12:55:39;20.30;99.90
57386;DHT22;61487;56.494;21.014;2022-07-23T12:58:26;20.10;99.90
57386;DHT22;61487;56.494;21.014;2022-07-23T13:00:59;20.00;99.90
57386;DHT22;61487;56.494;21.014;2022-07-23T13:03:39;19.90;99.90
57386;DHT22;61487;56.494;21.014;2022-07-23T13:06:10;19.90;99.90
57386;DHT22;61487;56.494;21.014;2022-07-23T13:08:38;19.70;99.90
57386;DHT22;61487;56.494;21.014;2022-07-23T13:11:06;19.70;99.90
57386;DHT22;61487;56.494;21.014;2022-07-23T13:13:34;19.60;99.90
57386;DHT22;61487;56.494;21.014;2022-07-23T13:16:01;19.50;99.90
57386;DHT22;61487;56.494;21.014;2022-07-23T13:18:36;19.50;99.90
57386;DHT22;61487;56.494;21.014;2022-07-23T13:21:03;19.40;99.90
57386;DHT22;61487;56.494;21.014;2022-07-23T13:23:31;19.60;99.90
57386;DHT22;61487;56.494;21.014;2022-07-23T13:25:58;19.60;99.90
57386;DHT22;61487;56.494;21.014;2022-07-23T13:28:25;19.60;99.90
57386;DHT22;61487;56.494;21.014;2022-07-23T13:30:53;19.60;99.90
57386;DHT22;61487;56.494;21.014;2022-07-23T13:33:21;19.70;99.90
57386;DHT22;61487;56.494;21.014;2022-07-23T13:35:48;19.70;99.90
57386;DHT22;61487;56.494;21.014;2022-07-23T13:38:16;19.50;99.90
57386;DHT22;61487;56.494;21.014;2022-07-23T13:40:44;19.50;99.90
57386;DHT22;61487;56.494;21.014;2022-07-23T13:43:13;19.50;99.90
57386;DHT22;61487;56.494;21.014;2022-07-23T13:45:41;19.60;99.90
57386;DHT22;61487;56.494;21.014;2022-07-23T13:48:13;19.80;99.90
57386;DHT22;61487;56.494;21.014;2022-07-23T13:50:41;20.10;99.90
57386;DHT22;61487;56.494;21.014;2022-07-23T13:53:09;20.50;99.90
57386;DHT22;61487;56.494;21.014;2022-07-23T13:55:38;20.90;99.90
57386;DHT22;61487;56.494;21.014;2022-07-23T13:58:14;21.00;99.90
57386;DHT22;61487;56.494;21.014;2022-07-23T14:00:42;21.10;99.90
57386;DHT22;61487;56.494;21.014;2022-07-23T14:03:19;21.20;99.90
57386;DHT22;61487;56.494;21.014;2022-07-23T14:05:47;21.00;99.90
57386;DHT22;61487;56.494;21.014;2022-07-23T14:08:14;20.80;99.90
57386;DHT22;61487;56.494;21.014;2022-07-23T14:10:41;20.40;99.90
57386;DHT22;61487;56.494;21.014;2022-07-23T14:13:09;20.30;99.90
57386;DHT22;61487;56.494;21.014;2022-07-23T14:15:37;20.20;99.90
57386;DHT22;61487;56.494;21.014;2022-07-23T14:18:07;20.00;99.90
57386;DHT22;61487;56.494;21.014;2022-07-23T14:20:34;20.00;99.90
57386;DHT22;61487;56.494;21.014;2022-07-23T14:23:01;19.90;99.90
57386;DHT22;61487;56.494;21.014;2022-07-23T14:25:31;19.80;99.90
57386;DHT22;61487;56.494;21.014;2022-07-23T14:27:59;19.70;99.90
57386;DHT22;61487;56.494;21.014;2022-07-23T14:30:26;19.60;99.90
57386;DHT22;61487;56.494;21.014;2022-07-23T14:33:00;19.50;99.90
57386;DHT22;61487;56.494;21.014;2022-07-23T14:35:27;19.50;99.90
57386;DHT22;61487;56.494;21.014;2022-07-23T14:37:54;19.40;99.90
57386;DHT22;61487;56.494;21.014;2022-07-23T14:40:21;19.40;99.90
57386;DHT22;61487;56.494;21.014;2022-07-23T14:42:49;19.30;99.90
57386;DHT22;61487;56.494;21.014;2022-07-23T14:45:16;19.20;99.90
57386;DHT22;61487;56.494;21.014;2022-07-23T14:47:45;19.30;99.90
57386;DHT22;61487;56.494;21.014;2022-07-23T14:50:13;19.30;99.90
57386;DHT22;61487;56.494;21.014;2022-07-23T14:52:40;19.30;99.90
57386;DHT22;61487;56.494;21.014;2022-07-23T14:55:08;19.40;99.90
57386;DHT22;61487;56.494;21.014;2022-07-23T14:57:35;19.50;99.90
57386;DHT22;61487;56.494;21.014;2022-07-23T15:00:05;19.70;99.90
57386;DHT22;61487;56.494;21.014;2022-07-23T15:02:35;19.80;99.90
57386;DHT22;61487;56.494;21.014;2022-07-23T15:05:02;20.00;99.90
57386;DHT22;61487;56.494;21.014;2022-07-23T15:07:32;20.00;99.90
57386;DHT22;61487;56.494;21.014;2022-07-23T15:09:59;20.00;99.90
57386;DHT22;61487;56.494;21.014;2022-07-23T15:12:28;20.10;99.90
57386;DHT22;61487;56.494;21.014;2022-07-23T15:14:55;20.20;99.90
57386;DHT22;61487;56.494;21.014;2022-07-23T15:17:22;20.10;99.90
57386;DHT22;61487;56.494;21.014;2022-07-23T15:19:52;20.10;99.90
57386;DHT22;61487;56.494;21.014;2022-07-23T15:22:19;20.20;99.90
57386;DHT22;61487;56.494;21.014;2022-07-23T15:24:47;20.10;99.90
57386;DHT22;61487;56.494;21.014;2022-07-23T15:27:14;20.10;99.90
57386;DHT22;61487;56.494;21.014;2022-07-23T15:29:44;20.00;99.90
57386;DHT22;61487;56.494;21.014;2022-07-23T15:32:11;19.80;99.90
57386;DHT22;61487;56.494;21.014;2022-07-23T15:34:39;19.70;99.90
57386;DHT22;61487;56.494;21.014;2022-07-23T15:37:06;19.80;99.90
57386;DHT22;61487;56.494;21.014;2022-07-23T15:39:39;19.80;99.90
57386;DHT22;61487;56.494;21.014;2022-07-23T15:42:07;19.80;99.90
57386;DHT22;61487;56.494;21.014;2022-07-23T15:44:41;19.70;99.90
57386;DHT22;61487;56.494;21.014;2022-07-23T15:47:14;19.70;99.90
57386;DHT22;61487;56.494;21.014;2022-07-23T15:49:44;19.60;99.90
57386;DHT22;61487;56.494;21.014;2022-07-23T15:52:12;19.50;99.90
57386;DHT22;61487;56.494;21.014;2022-07-23T15:54:40;19.50;99.90
57386;DHT22;61487;56.494;21.014;2022-07-23T15:57:14;19.30;99.90
57386;DHT22;61487;56.494;21.014;2022-07-23T15:59:41;19.20;99.90
57386;DHT22;61487;56.494;21.014;2022-07-23T16:02:09;19.20;99.90
57386;DHT22;61487;56.494;21.014;2022-07-23T16:04:36;19.10;99.90
57386;DHT22;61487;56.494;21.014;2022-07-23T16:07:03;19.10;99.90
57386;DHT22;61487;56.494;21.014;2022-07-23T16:09:30;19.10;99.90
57386;DHT22;61487;56.494;21.014;2022-07-23T16:11:58;19.10;99.90
57386;DHT22;61487;56.494;21.014;2022-07-23T16:14:25;19.10;99.90
57386;DHT22;61487;56.494;21.014;2022-07-23T16:16:52;19.00;99.90